CYGQ

Geraldton Greenstone Regional Airport

Geraldton, Ontario, Canada
TAF CYGQ 260138Z 2602/2614 20010KT P6SM SCT180 BKN220 FM261200 22008KT P6SM BKN060 OVC180 BECMG 2612/2614 36010KT RMK NXT FCST BY 260800Z
Issued Valid From Valid To
Apr-26 @ 01:38 UTC
(2 hours ago)
Apr-26 @ 02:00 UTC
(2 hours ago)
Apr-26 @ 14:00 UTC
(in 10 hours)
Apr-26 @ 02:00 to Apr-26 @ 12:00
TAF CYGQ 260138Z 2602/2614 20010KT P6SM SCT180 BKN220
Wind Visibility Clouds
200° at 10 knots Greater than 6 miles
  • Scattered at 18,000' AGL
  • Broken at 22,000' AGL
From Apr-26 @ 12:00 to Apr-26 @ 14:00
FM261200 22008KT P6SM BKN060 OVC180
Wind Visibility Clouds
220° at 8 knots Greater than 6 miles
  • Broken at 6,000' AGL
  • Overcast at 18,000' AGL
Becoming Apr-26 @ 12:00 to Apr-26 @ 14:00
BECMG 2612/2614 36010KT RMK NXT FCST BY 260800Z
Wind Visibility Clouds
360° at 10 knots Greater than 6 miles
  • Broken at 6,000' AGL
  • Overcast at 18,000' AGL
TAF CYGQ 260138Z 2602/2614 20010KT P6SM SCT180 BKN220 FM261200 22008KT P6SM BKN060 OVC180 BECMG 2612/2614 36010KT RMK NXT FCST BY 260800Z
Issued Apr-26 @ 01:38 UTC
(2 hours ago)
Valid From Apr-26 @ 02:00 UTC
(2 hours ago)
Valid To Apr-26 @ 14:00 UTC
(in 10 hours)
Apr-26 @ 02:00 - Apr-26 @ 12:00
Wind Visibility
200° at 10 knots Greater than 6 miles
Clouds
  • Scattered at 18,000' AGL
  • Broken at 22,000' AGL
From Apr-26 @ 12:00 - Apr-26 @ 14:00
Wind Visibility
220° at 8 knots Greater than 6 miles
Clouds
  • Broken at 6,000' AGL
  • Overcast at 18,000' AGL
Becoming Apr-26 @ 12:00 - Apr-26 @ 14:00
Wind Visibility
360° at 10 knots Greater than 6 miles
Clouds
  • Broken at 6,000' AGL
  • Overcast at 18,000' AGL